Map

Track Data

SID SEASON NUMBER BASIN SUBBASIN NAME ISO_TIME NATURE LAT LON WMO_WIND WMO_PRES WMO_AGENCY TRACK_TYPE DIST2LAND LANDFALL IFLAG USA_AGENCY USA_ATCF_ID USA_LAT USA_LON USA_RECORD USA_STATUS USA_WIND USA_PRES USA_SSHS USA_R34_NE USA_R34_SE USA_R34_SW USA_R34_NW USA_R50_NE USA_R50_SE USA_R50_SW USA_R50_NW USA_R64_NE USA_R64_SE USA_R64_SW USA_R64_NW USA_POCI USA_ROCI USA_RMW USA_EYE TOKYO_LAT TOKYO_LON TOKYO_GRADE TOKYO_WIND TOKYO_PRES TOKYO_R50_DIR TOKYO_R50_LONG TOKYO_R50_SHORT TOKYO_R30_DIR TOKYO_R30_LONG TOKYO_R30_SHORT TOKYO_LAND CMA_LAT CMA_LON CMA_CAT CMA_WIND CMA_PRES HKO_LAT HKO_LON HKO_CAT HKO_WIND HKO_PRES NEWDELHI_LAT NEWDELHI_LON NEWDELHI_GRADE NEWDELHI_WIND NEWDELHI_PRES NEWDELHI_CI NEWDELHI_DP NEWDELHI_POCI REUNION_LAT REUNION_LON REUNION_TYPE REUNION_WIND REUNION_PRES REUNION_TNUM REUNION_CI REUNION_RMW REUNION_R34_NE REUNION_R34_SE REUNION_R34_SW REUNION_R34_NW REUNION_R50_NE REUNION_R50_SE REUNION_R50_SW REUNION_R50_NW REUNION_R64_NE REUNION_R64_SE REUNION_R64_SW REUNION_R64_NW BOM_LAT BOM_LON BOM_TYPE BOM_WIND BOM_PRES BOM_TNUM BOM_CI BOM_RMW BOM_R34_NE BOM_R34_SE BOM_R34_SW BOM_R34_NW BOM_R50_NE BOM_R50_SE BOM_R50_SW BOM_R50_NW BOM_R64_NE BOM_R64_SE BOM_R64_SW BOM_R64_NW BOM_ROCI BOM_POCI BOM_EYE BOM_POS_METHOD BOM_PRES_METHOD NADI_LAT NADI_LON NADI_CAT NADI_WIND NADI_PRES WELLINGTON_LAT WELLINGTON_LON WELLINGTON_WIND WELLINGTON_PRES DS824_LAT DS824_LON DS824_STAGE DS824_WIND DS824_PRES TD9636_LAT TD9636_LON TD9636_STAGE TD9636_WIND TD9636_PRES TD9635_LAT TD9635_LON TD9635_WIND TD9635_PRES TD9635_ROCI NEUMANN_LAT NEUMANN_LON NEUMANN_CLASS NEUMANN_WIND NEUMANN_PRES MLC_LAT MLC_LON MLC_CLASS MLC_WIND MLC_PRES USA_GUST BOM_GUST BOM_GUST_PER REUNION_GUST REUNION_GUST_PER USA_SEAHGT USA_SEARAD_NE USA_SEARAD_SE USA_SEARAD_SW USA_SEARAD_NW STORM_SPEED STORM_DIR
2004237N17236 2004 59 EP MM NOT_NAMED 2004-08-23 18:00:00 TS 17.3000 -123.600 25 1008 hurdat_epa main 1448 1435 O_____________ hurdat_epa EP092004 17.3000 -123.600 TD 25 1008 -1 1011 150 30 5 349
2004237N17236 2004 59 EP MM NOT_NAMED 2004-08-23 21:00:00 TS 17.5550 -123.642 main 1428 1418 P_____________ EP092004 17.5550 -123.642 TD 27 1007 -1 5 349
2004237N17236 2004 59 EP MM NOT_NAMED 2004-08-24 00:00:00 TS 17.8000 -123.700 30 1006 hurdat_epa main 1418 1408 O_____________ hurdat_epa EP092004 17.8000 -123.700 TD 30 1006 -1 35 5 343
2004237N17236 2004 59 EP MM NOT_NAMED 2004-08-24 03:00:00 TS 18.0225 -123.785 main 1408 1397 P_____________ EP092004 18.0225 -123.785 TD 30 1005 -1 4 335
2004237N17236 2004 59 EP MM NOT_NAMED 2004-08-24 06:00:00 TS 18.2000 -123.900 30 1005 hurdat_epa main 1397 1389 O_____________ hurdat_epa EP092004 18.2000 -123.900 TD 30 1005 -1 35 4 322
2004237N17236 2004 59 EP MM NOT_NAMED 2004-08-24 09:00:00 TS 18.3149 -124.020 main 1395 1394 P_____________ EP092004 18.3149 -124.020 TD 30 1005 -1 3 305
2004237N17236 2004 59 EP MM NOT_NAMED 2004-08-24 12:00:00 TS 18.4000 -124.200 30 1005 hurdat_epa main 1400 1400 O_____________ hurdat_epa EP092004 18.4000 -124.200 TD 30 1005 -1 40 5 292
2004237N17236 2004 59 EP MM NOT_NAMED 2004-08-24 15:00:00 TS 18.4925 -124.478 main 1413 1413 P_____________ EP092004 18.4925 -124.478 TD 30 1005 -1 6 289
2004237N17236 2004 59 EP MM NOT_NAMED 2004-08-24 18:00:00 TS 18.6000 -124.800 30 1005 hurdat_epa main 1426 1425 O_____________ hurdat_epa EP092004 18.6000 -124.800 TD 30 1005 -1 40 6 293
2004237N17236 2004 59 EP MM NOT_NAMED 2004-08-24 21:00:00 TS 18.7425 -125.100 main 1439 1431 P_____________ EP092004 18.7425 -125.100 TD 30 1005 -1 6 298
2004237N17236 2004 59 EP MM NOT_NAMED 2004-08-25 00:00:00 TS 18.9000 -125.400 30 1005 hurdat_epa main 1445 1445 O_____________ hurdat_epa EP092004 18.9000 -125.400 TD 30 1005 -1 40 6 300
2004237N17236 2004 59 EP MM NOT_NAMED 2004-08-25 03:00:00 TS 19.0574 -125.685 main 1452 1452 P_____________ EP092004 19.0574 -125.685 TD 27 1006 -1 6 298
2004237N17236 2004 59 EP MM NOT_NAMED 2004-08-25 06:00:00 TS 19.2000 -126.000 25 1007 hurdat_epa main 1468 1468 O_____________ hurdat_epa EP092004 19.2000 -126.000 TD 25 1007 -1 35 7 290
2004237N17236 2004 59 EP MM NOT_NAMED 2004-08-25 09:00:00 TS 19.2999 -126.378 main 1492 1492 P_____________ EP092004 19.2999 -126.378 TD 25 1007 -1 8 285
2004237N17236 2004 59 EP MM NOT_NAMED 2004-08-25 12:00:00 TS 19.4000 -126.800 25 1007 hurdat_epa main 1516 1516 O_____________ hurdat_epa EP092004 19.4000 -126.800 TD 25 1007 -1 35 8 287
2004237N17236 2004 59 EP MM NOT_NAMED 2004-08-25 15:00:00 TS 19.5499 -127.235 main 1542 1542 P_____________ EP092004 19.5499 -127.235 TD 25 1008 -1 9 289
2004237N17236 2004 59 EP MM NOT_NAMED 2004-08-25 18:00:00 TS 19.7000 -127.700 25 1009 hurdat_epa main 1569 1569 O_____________ hurdat_epa EP092004 19.7000 -127.700 TD 25 1009 -1 35 9 286
2004237N17236 2004 59 EP MM NOT_NAMED 2004-08-25 21:00:00 TS 19.8149 -128.193 main 1605 1605 P_____________ EP092004 19.8149 -128.193 TD 25 1009 -1 10 282
2004237N17236 2004 59 EP MM NOT_NAMED 2004-08-26 00:00:00 TS 19.9000 -128.700 25 1009 hurdat_epa main 1641 1641 O_____________ hurdat_epa EP092004 19.9000 -128.700 TD 25 1009 -1 35 10 279
2004237N17236 2004 59 EP MM NOT_NAMED 2004-08-26 03:00:00 TS 19.9648 -129.193 main 1678 1678 P_____________ EP092004 19.9648 -129.193 TD 25 1009 -1 9 276
2004237N17236 2004 59 EP MM NOT_NAMED 2004-08-26 06:00:00 TS 20.0000 -129.700 25 1009 hurdat_epa main 1722 1722 O_____________ hurdat_epa EP092004 20.0000 -129.700 TD 25 1009 -1 35 10 273
2004237N17236 2004 59 EP MM NOT_NAMED 2004-08-26 09:00:00 TS 20.0149 -130.243 main 1766 1766 P_____________ EP092004 20.0149 -130.243 TD 25 1009 -1 10 270
2004237N17236 2004 59 EP MM NOT_NAMED 2004-08-26 12:00:00 TS 20.0000 -130.800 25 1009 hurdat_epa main 1819 1819 O_____________ hurdat_epa EP092004 20.0000 -130.800 TD 25 1009 -1 35 10 267
2004237N17236 2004 59 EP MM NOT_NAMED 2004-08-26 15:00:00 TS 19.9572 -131.335 main 1864 1864 P_____________ EP092004 19.9572 -131.335 TD 25 1009 -1 10 264
2004237N17236 2004 59 EP MM NOT_NAMED 2004-08-26 18:00:00 DS 19.9000 -131.900 25 1009 hurdat_epa main 1924 1924 O_____________ hurdat_epa EP092004 19.9000 -131.900 LO 25 1009 -3 12 265
2004237N17236 2004 59 EP MM NOT_NAMED 2004-08-26 21:00:00 DS 19.8502 -132.565 main 1987 1987 P_____________ EP092004 19.8502 -132.565 LO 22 1009 -3 12 265
2004237N17236 2004 59 EP MM NOT_NAMED 2004-08-27 00:00:00 DS 19.8000 -133.200 20 1009 hurdat_epa main 2047 2047 O_____________ hurdat_epa EP092004 19.8000 -133.200 LO 20 1009 -3 11 265
2004237N17236 2004 59 EP MM NOT_NAMED 2004-08-27 03:00:00 DS 19.7571 -133.680 main 2084 2084 P_____________ EP092004 19.7571 -133.680 LO 20 1009 -3 9 263
2004237N17236 2004 59 EP MM NOT_NAMED 2004-08-27 06:00:00 DS 19.7000 -134.100 20 1009 hurdat_epa main 2117 2117 O_____________ hurdat_epa EP092004 19.7000 -134.100 LO 20 1009 -3 8 261
2004237N17236 2004 59 EP MM NOT_NAMED 2004-08-27 09:00:00 DS 19.6298 -134.542 main 2125 2074 P_____________ EP092004 19.6298 -134.542 LO 20 1009 -3 9 257
2004237N17236 2004 59 EP MM NOT_NAMED 2004-08-27 12:00:00 DS 19.5000 -135.000 20 1009 hurdat_epa main 2074 2023 O_____________ hurdat_epa EP092004 19.5000 -135.000 LO 20 1009 -3 10 248
2004237N17236 2004 59 EP MM NOT_NAMED 2004-08-27 15:00:00 DS 19.2724 -135.493 main 2023 1973 P_____________ EP092004 19.2724 -135.493 LO 20 1009 -3 11 242
2004237N17236 2004 59 EP MM NOT_NAMED 2004-08-27 18:00:00 DS 19.0000 -136.000 20 1010 hurdat_epa main 1973 1933 O_____________ hurdat_epa EP092004 19.0000 -136.000 LO 20 1010 -3 11 240
2004237N17236 2004 59 EP MM NOT_NAMED 2004-08-27 21:00:00 DS 18.7495 -136.462 main 1924 1874 P_____________ EP092004 18.7495 -136.462 LO 20 1010 -3 11 242
2004237N17236 2004 59 EP MM NOT_NAMED 2004-08-28 00:00:00 DS 18.5000 -137.000 20 1010 hurdat_epa main 1874 1803 O_____________ hurdat_epa EP092004 18.5000 -137.000 LO 20 1010 -3 13 247
2004237N17236 2004 59 EP MM NOT_NAMED 2004-08-28 03:00:00 DS 18.2509 -137.701 main 1803 1723 P_____________ EP092004 18.2509 -137.701 LO 20 1010 -3 15 251
2004237N17236 2004 59 EP MM NOT_NAMED 2004-08-28 06:00:00 DS 18.0000 -138.500 20 1010 hurdat_epa main 1723 O_____________ hurdat_epa EP092004 18.0000 -138.500 LO 20 1010 -3 16 252

About IBTrACS Database

This database is a web-friendly format of International Best Track Archive for Climate Stewardship (IBTrACS), a global best track data archive curated by NOAA dating back to 1842.

Updated: 2021-12-08